Teun Hateboer

Olheiro-Chefe - Excelsior
23 Abr 2028
Domingo
Processo

Personalidade

Adaptabilidade (20) Ambição (7) Controvérsia (7) Lealdade (4) Pressão (15) Profissionalismo (13) Espírito Esportivo (15) Temperamento (12)

Perfil

Estilo de Treinamento Democrático
Licença Continental A
Determinação 3
Gestão de Pessoas 9
Motivação 6
Disciplina 7
Satisfação no Trabalho
100%
Fadiga
0%
Função Olheiro-Chefe
Salário 56.2K p/s
Contrato 14.03.2029

Desempenho

Comportamento Bom
Eficácia do Treinamento
40%
Desenvolvimento do Jogador
40%
Prevenção de Lesões
20%
Implementação Tática
40%

Eventos Recentes

Participou de uma reunião de recrutamento agora
Recomendou um alvo de transferência agora
Recomendou um alvo de transferência agora
Recomendou um alvo de transferência agora
Recomendou um alvo de transferência agora
Recomendou um alvo de transferência 7d atrás
Recomendou um alvo de transferência 7d atrás
Recomendou um alvo de transferência 7d atrás

Monitorando agora

70
Jogador Clube Status Habilidade Confiança Observado Última observação Último voto
Tamas Kleinheisler St. Pauli Negociando 114 / 121 66% 1 01.06.2027 Aprovar
Liel Abada Inter Miami CF Negociando 131 / 132 62% 1 01.06.2027 Aprovar
Pedro de la Vega Columbus Crew Negociando 133 / 134 66% 1 01.06.2027 Aprovar
Léandre Kuavita Waasland-Beveren Ativo 123 / 116 40% 3 23.02.2027 -
Antonio Blanco Alavés Ativo 146 / 147 40% 2 23.02.2027 -
Timothy Witsel FC Metz Ativo 146 / 140 40% 3 22.02.2027 -
Welington Southampton Ativo 124 / 136 40% 1 22.02.2027 -
Alessandro Buongiorno Cagliari Ativo 145 / 151 40% 1 20.02.2027 -
Mike Eerdhuijzen KV Mechelen Ativo 126 / 115 40% 1 17.02.2027 -
Ewoud Pletinckx OH Leuven Ativo 114 / 109 40% 1 17.02.2027 -
Adam Randell Bristol City Ativo 137 / 119 40% 2 16.02.2027 -
Djevencio van der Kust Heracles Ativo 112 / 119 40% 1 16.02.2027 -
Jack Currie Oxford United Ativo 112 / 121 40% 1 15.02.2027 -
Tommy St. Jago KV Mechelen Ativo 113 / 119 40% 4 14.02.2027 -
Alonzo Engwanda Utrecht Ativo 113 / 121 40% 1 13.02.2027 -
Vasilis Zagaritis Heerenveen Ativo 136 / 132 40% 1 12.02.2027 -
Aidan Morris Middlesbrough Ativo 136 / 138 40% 1 12.02.2027 -
Carlos Jimenez Veracruz Ativo 104 / 104 40% 1 07.02.2027 -
Mardochée Nzita Charleroi Ativo 118 / 117 40% 3 04.02.2027 -
Bosun Lawal Stoke City Ativo 128 / 137 40% 1 04.02.2027 -
Kevin Lomónaco Elche Ativo 120 / 143 40% 1 03.02.2027 -
Juan Gutiérrez Córdoba Ativo 135 / 115 40% 1 03.02.2027 -
Cheveyo Tsawa Club Brugge Ativo 110 / 115 40% 1 01.02.2027 -
Dries Witsel KV Oostende Ativo 106 / 114 40% 1 25.01.2027 -
Max Bird Birmingham Ativo 144 / 124 40% 1 25.01.2027 -
Bart van Rooij Twente Ativo 147 / 134 40% 1 02.01.2027 -
Sampson Dweh Mallorca Negociando 133 / 134 66% 1 01.01.2027 Aprovar
Max Svensson Corinthians Negociando 106 / 108 66% 1 01.01.2027 Aprovar
Pablo Fernández Leiria Negociando 110 / 110 67% 1 01.01.2027 Aprovar
Carlos Vicente Birmingham Ativo 147 / 135 40% 4 29.12.2026 -
Bradley Zwane SuperSport United Ativo 109 / 111 40% 1 29.12.2026 -
Amar Memić Viktoria Plzen Ativo 108 / 133 40% 1 26.12.2026 -
Thomas Claes Zulte Waregem Ativo 121 / 126 40% 2 25.12.2026 -
Chris Lokesa Waasland-Beveren Ativo 119 / 123 40% 4 23.12.2026 -
Ilias Sebaoui Sint-Truiden Ativo 130 / 122 40% 1 22.12.2026 -
Ilyes Najim Waasland-Beveren Ativo 105 / 105 40% 5 18.12.2026 -
Marley Aké Zulte Waregem Ativo 109 / 125 40% 2 17.12.2026 -
Oswin Appollis Orlando Pirates Ativo 126 / 131 40% 1 14.12.2026 -
Łukasz Łakomy OH Leuven Ativo 129 / 119 40% 1 06.12.2026 -
Maksim Kireev KV Mechelen Ativo 104 / 129 40% 1 03.12.2026 -
Robert-Jan Vanwesemael Sint-Truiden Ativo 123 / 109 40% 1 28.11.2026 -
Yoann Cathline Utrecht Ativo 137 / 125 40% 4 25.11.2026 -
Mitchel Bakker Modena Ativo 138 / 122 40% 1 25.11.2026 -
Finn Azaz Southampton Ativo 143 / 122 40% 2 23.11.2026 -
Daan Rots Twente Ativo 136 / 135 40% 1 19.11.2026 -
Kyriani Sabbe Club Brugge Ativo 119 / 126 40% 4 16.11.2026 -
Juan Bisanz Huracán Ativo 131 / 125 40% 2 14.11.2026 -
Assane Diao Como Ativo 159 / 139 40% 1 14.11.2026 -
Adu Ares Eibar Ativo 114 / 121 40% 1 13.11.2026 -
Savinho Tottenham Ativo 156 / 152 40% 1 06.11.2026 -
Aimé Omgba KAA Gent Ativo 125 / 123 40% 2 05.11.2026 -
Alex Luna Instituto Ativo 128 / 128 40% 1 05.11.2026 -
Jadon Sancho Manchester United Ativo 142 / 149 40% 1 02.11.2026 -
Jan Virgili Club Brugge Ativo 124 / 136 40% 4 30.10.2026 -
Jakub Moder Burnley Ativo 134 / 141 40% 1 30.10.2026 -
Ramiro Sordo Santos Laguna Ativo 131 / 107 40% 1 26.10.2026 -
Ibrahim Karamoko Standard Liege Ativo 126 / 131 40% 1 23.10.2026 -
Jeppe Erenbjerg Racing Genk Ativo 128 / 128 40% 1 22.10.2026 -
Thomas Van Den Keybus Westerlo Ativo 113 / 114 40% 1 22.10.2026 -
Taiga Hata Sint-Truiden Ativo 132 / 122 40% 1 21.10.2026 -
Yaimar Medina Racing Genk Ativo 134 / 118 40% 1 20.10.2026 -
Alejandro Piedrahita Deportivo Pereira Ativo 131 / 113 40% 2 19.10.2026 -
Thibaud Verlinden OH Leuven Ativo 135 / 132 40% 2 18.10.2026 -
Killian Sardella Anderlecht Ativo 123 / 122 40% 1 12.10.2026 -
Mason Mount Manchester United Ativo 147 / 145 40% 1 10.10.2026 -
Antoine Colassin Charleroi Ativo 121 / 123 40% 1 10.10.2026 -
Timothy Tielemans Mouscron Ativo 117 / 119 40% 1 09.10.2026 -
Jarne Steuckers Racing Genk Ativo 116 / 129 40% 1 06.10.2026 -
Tristan Degreef Anderlecht Ativo 116 / 129 40% 1 06.10.2026 -
Dennis Ayensa Standard Liege Ativo 121 / 113 40% 1 02.08.2026 -